createdAt,value
2023-01-18T00:01:47.196Z,9.53
2023-01-18T00:05:09.694Z,5.23
2023-01-18T00:08:32.985Z,4.33
2023-01-18T00:11:59.968Z,4.00
2023-01-18T00:15:21.575Z,2.93
2023-01-18T00:18:44.451Z,2.00
2023-01-18T00:22:08.397Z,1.80
2023-01-18T00:25:32.796Z,1.93
2023-01-18T00:28:58.203Z,1.90
2023-01-18T00:32:22.991Z,2.33
2023-01-18T00:35:44.575Z,1.80
2023-01-18T00:39:06.192Z,3.17
2023-01-18T00:42:48.585Z,2.20
2023-01-18T00:46:11.711Z,2.27
2023-01-18T00:49:35.460Z,2.20
2023-01-18T00:53:00.374Z,2.40
2023-01-18T00:56:22.870Z,1.97
2023-01-18T00:59:46.927Z,2.40
2023-01-18T01:03:11.448Z,2.33
2023-01-18T01:06:47.398Z,2.83
2023-01-18T01:10:09.796Z,1.70
2023-01-18T01:13:50.218Z,1.80
2023-01-18T01:17:32.567Z,3.37
2023-01-18T01:21:12.409Z,2.13
2023-01-18T01:24:52.803Z,2.33
2023-01-18T01:28:14.433Z,3.17
2023-01-18T01:31:40.924Z,2.90
2023-01-18T01:35:04.716Z,3.33
2023-01-18T01:38:26.852Z,3.47
2023-01-18T01:41:49.185Z,4.03
2023-01-18T01:45:13.183Z,4.40
2023-01-18T01:48:37.151Z,4.20
2023-01-18T01:52:03.798Z,4.37
2023-01-18T01:55:32.299Z,4.30
2023-01-18T01:58:58.464Z,4.75
2023-01-18T02:02:21.987Z,5.60
2023-01-18T02:05:46.824Z,4.47
2023-01-18T02:09:14.401Z,6.47
2023-01-18T02:12:42.345Z,7.10
2023-01-18T02:16:20.956Z,7.85
2023-01-18T02:19:57.823Z,7.88
2023-01-18T02:23:40.259Z,9.67
2023-01-18T02:27:20.369Z,7.53
2023-01-18T02:30:47.866Z,7.97
2023-01-18T02:34:24.105Z,9.37
2023-01-18T02:37:53.080Z,7.80
2023-01-18T02:41:59.361Z,9.77
2023-01-18T02:46:02.909Z,7.87
2023-01-18T02:49:29.829Z,12.13
2023-01-18T02:52:53.713Z,6.93
2023-01-18T02:56:18.339Z,6.73
2023-01-18T02:59:46.845Z,6.53
2023-01-18T03:03:10.977Z,7.38
2023-01-18T03:06:33.529Z,6.13
2023-01-18T03:09:56.975Z,7.80
2023-01-18T03:13:29.139Z,6.13
2023-01-18T03:17:09.217Z,6.60
2023-01-18T03:20:34.684Z,9.03
2023-01-18T03:23:57.816Z,7.37
2023-01-18T03:27:37.892Z,7.23
2023-01-18T03:31:21.162Z,7.13
2023-01-18T03:34:51.856Z,9.13
2023-01-18T03:38:14.469Z,8.27
2023-01-18T03:41:43.424Z,9.00
2023-01-18T03:45:32.900Z,13.73
2023-01-18T03:48:55.194Z,25.65
2023-01-18T03:52:20.040Z,9.90
2023-01-18T03:55:47.397Z,8.27
2023-01-18T03:59:09.203Z,9.10
2023-01-18T04:02:32.099Z,8.53
2023-01-18T04:05:53.883Z,9.13
2023-01-18T04:09:17.687Z,12.27
2023-01-18T04:12:39.364Z,13.50
2023-01-18T04:16:01.332Z,10.17
2023-01-18T04:19:25.432Z,10.87
2023-01-18T04:22:52.509Z,10.33
2023-01-18T04:26:16.657Z,10.57
2023-01-18T04:29:40.827Z,12.27
2023-01-18T04:33:02.391Z,10.37
2023-01-18T04:36:24.061Z,10.30
2023-01-18T04:39:47.867Z,9.73
2023-01-18T04:43:09.511Z,11.50
2023-01-18T04:46:31.166Z,12.77
2023-01-18T04:49:52.801Z,11.50
2023-01-18T04:53:20.698Z,12.30
2023-01-18T04:56:42.396Z,10.43
2023-01-18T05:00:04.330Z,28.27
2023-01-18T05:03:28.197Z,15.13
2023-01-18T05:06:49.882Z,12.40
2023-01-18T05:10:14.301Z,12.47
2023-01-18T05:13:36.265Z,12.77
2023-01-18T05:16:58.266Z,11.63
2023-01-18T05:20:22.161Z,12.07
2023-01-18T05:23:46.441Z,12.43
2023-01-18T05:27:11.935Z,11.40
2023-01-18T05:30:38.201Z,11.93
2023-01-18T05:33:59.847Z,11.67
2023-01-18T05:37:21.466Z,8.83
2023-01-18T05:40:44.909Z,7.97
2023-01-18T05:44:06.653Z,6.17
2023-01-18T05:47:28.258Z,6.70
2023-01-18T05:50:49.907Z,4.00
2023-01-18T05:54:13.744Z,3.90
2023-01-18T05:57:37.682Z,4.77
2023-01-18T06:00:59.399Z,3.40
2023-01-18T06:04:22.212Z,3.60
2023-01-18T06:07:43.977Z,8.00
2023-01-18T06:11:06.512Z,8.93
2023-01-18T06:14:28.116Z,4.30
2023-01-18T06:17:49.922Z,3.10
2023-01-18T06:21:11.971Z,3.47
2023-01-18T06:24:36.284Z,2.63
2023-01-18T06:28:00.238Z,2.77
2023-01-18T06:31:21.891Z,3.60
2023-01-18T06:34:43.508Z,2.53
2023-01-18T06:38:05.599Z,5.50
2023-01-18T06:41:27.284Z,2.63
2023-01-18T06:44:49.004Z,4.30
2023-01-18T06:48:10.538Z,2.70
2023-01-18T06:51:32.137Z,3.10
2023-01-18T06:54:55.925Z,3.10
2023-01-18T06:58:17.509Z,1.90
2023-01-18T07:01:41.982Z,3.83
2023-01-18T07:05:04.285Z,6.30
2023-01-18T07:08:31.103Z,4.17
2023-01-18T07:11:52.723Z,5.77
2023-01-18T07:15:21.582Z,4.10
2023-01-18T07:18:48.676Z,4.70
2023-01-18T07:22:10.365Z,18.10
2023-01-18T07:25:34.740Z,2.93
2023-01-18T07:28:58.354Z,3.10
2023-01-18T07:32:19.969Z,4.37
2023-01-18T07:35:43.754Z,2.87
2023-01-18T07:39:08.360Z,2.60
2023-01-18T07:42:29.993Z,9.63
2023-01-18T07:46:01.734Z,3.00
2023-01-18T07:49:23.383Z,3.77
2023-01-18T07:52:45.002Z,2.23
2023-01-18T07:56:13.792Z,6.40
2023-01-18T08:02:59.001Z,5.80
2023-01-18T08:06:25.100Z,4.20
2023-01-18T08:09:46.802Z,6.40
2023-01-18T08:13:10.238Z,3.30
2023-01-18T08:16:31.819Z,3.33
2023-01-18T08:19:54.033Z,3.53
2023-01-18T08:23:16.867Z,5.30
2023-01-18T08:26:39.072Z,2.50
2023-01-18T08:30:03.353Z,3.83
2023-01-18T08:33:25.041Z,2.60
2023-01-18T08:36:51.036Z,2.83
2023-01-18T08:40:12.972Z,2.50
2023-01-18T08:43:34.704Z,2.43
2023-01-18T08:46:56.344Z,5.00
2023-01-18T08:50:18.059Z,1.47
2023-01-18T08:53:39.902Z,1.67
2023-01-18T08:57:02.633Z,2.08
2023-01-18T09:00:27.008Z,1.70
2023-01-18T09:03:55.018Z,1.30
2023-01-18T09:07:17.784Z,1.58
2023-01-18T09:10:41.694Z,1.40
2023-01-18T09:14:03.382Z,1.40
2023-01-18T09:17:24.944Z,1.60
2023-01-18T09:20:46.948Z,1.30
2023-01-18T09:24:08.609Z,3.03
2023-01-18T09:27:30.636Z,1.90
2023-01-18T09:30:55.799Z,2.03
2023-01-18T09:34:20.147Z,2.40
2023-01-18T09:37:41.905Z,35.80
2023-01-18T09:41:10.790Z,3.73
2023-01-18T09:44:40.649Z,4.70
2023-01-18T09:48:11.479Z,1.33
2023-01-18T09:51:59.245Z,1.17
2023-01-18T09:55:47.673Z,0.90
2023-01-18T09:59:21.563Z,0.93
2023-01-18T10:02:46.435Z,1.20
2023-01-18T10:06:15.575Z,0.90
2023-01-18T10:09:44.725Z,1.40
2023-01-18T10:13:29.551Z,2.10
2023-01-18T10:17:03.105Z,1.77
2023-01-18T10:20:37.134Z,2.00
2023-01-18T10:24:32.107Z,1.90
2023-01-18T10:28:33.121Z,1.47
2023-01-18T10:32:03.930Z,1.40
2023-01-18T10:35:28.547Z,2.77
2023-01-18T10:38:53.383Z,3.73
2023-01-18T10:42:22.405Z,3.13
2023-01-18T10:45:44.097Z,1.50
2023-01-18T10:49:08.362Z,1.58
2023-01-18T10:52:32.019Z,1.75
2023-01-18T10:56:02.192Z,1.42
2023-01-18T10:59:29.911Z,2.10
2023-01-18T11:02:53.319Z,1.70
2023-01-18T11:06:17.158Z,2.38
2023-01-18T11:09:43.245Z,1.98
2023-01-18T11:13:42.591Z,2.53
2023-01-18T11:17:11.489Z,2.38
2023-01-18T11:20:50.088Z,1.80
2023-01-18T11:24:14.674Z,3.03
2023-01-18T11:27:36.916Z,2.13
2023-01-18T11:31:12.902Z,2.95
2023-01-18T11:34:37.721Z,7.05
2023-01-18T11:38:03.221Z,2.25
2023-01-18T11:41:24.816Z,10.60
2023-01-18T11:44:58.514Z,7.75
2023-01-18T11:48:42.129Z,2.97
2023-01-18T11:52:23.228Z,3.42
2023-01-18T11:55:56.168Z,2.30
2023-01-18T11:59:26.503Z,2.55
2023-01-18T12:03:18.539Z,2.42
2023-01-18T12:06:49.175Z,3.33
2023-01-18T12:10:24.838Z,2.35
2023-01-18T12:14:03.219Z,3.33
2023-01-18T12:18:11.373Z,2.33
2023-01-18T12:21:55.703Z,2.10
2023-01-18T12:25:40.793Z,2.63
2023-01-18T12:29:24.214Z,4.57
2023-01-18T12:33:22.640Z,2.50
2023-01-18T12:37:12.342Z,2.95
2023-01-18T12:40:42.607Z,2.47
2023-01-18T12:44:47.250Z,5.15
2023-01-18T12:48:36.052Z,2.55
2023-01-18T12:52:17.740Z,4.00
2023-01-18T12:55:49.339Z,4.50
2023-01-18T12:59:20.860Z,3.97
2023-01-18T13:02:45.792Z,2.42
2023-01-18T13:06:13.037Z,4.60
2023-01-18T13:09:40.344Z,2.10
2023-01-18T13:13:04.224Z,2.10
2023-01-18T13:17:05.033Z,1.98
2023-01-18T13:20:56.756Z,2.75
2023-01-18T13:24:30.439Z,2.08
2023-01-18T13:27:58.762Z,5.70
2023-01-18T13:31:30.564Z,2.65
2023-01-18T13:35:19.693Z,2.55
2023-01-18T13:38:52.148Z,2.60
2023-01-18T13:42:13.807Z,4.55
2023-01-18T13:46:07.231Z,2.67
2023-01-18T13:49:47.372Z,2.80
2023-01-18T13:53:13.767Z,4.55
2023-01-18T13:56:37.620Z,2.75
2023-01-18T14:00:00.216Z,4.28
2023-01-18T14:03:30.224Z,5.07
2023-01-18T14:06:57.534Z,3.03
2023-01-18T14:10:31.372Z,3.42
2023-01-18T14:13:53.010Z,5.30
2023-01-18T14:17:15.145Z,3.67
2023-01-18T14:20:42.154Z,4.47
2023-01-18T14:24:37.233Z,4.43
2023-01-18T14:28:09.718Z,3.15
2023-01-18T14:31:36.618Z,2.85
2023-01-18T14:35:02.714Z,4.13
2023-01-18T14:38:25.543Z,2.22
2023-01-18T14:41:55.459Z,3.22
2023-01-18T14:45:24.866Z,3.60
2023-01-18T14:48:53.382Z,7.40
2023-01-18T14:52:17.123Z,3.42
2023-01-18T14:55:39.444Z,6.68
2023-01-18T14:59:16.344Z,9.07
2023-01-18T15:02:39.138Z,5.90
2023-01-18T15:06:25.142Z,5.22
2023-01-18T15:09:47.281Z,4.10
2023-01-18T15:13:09.175Z,6.53
2023-01-18T15:16:31.352Z,6.90
2023-01-18T15:19:56.300Z,8.48
2023-01-18T15:23:18.039Z,6.72
2023-01-18T15:26:43.822Z,11.07
2023-01-18T15:30:12.880Z,13.10
2023-01-18T15:33:36.526Z,13.48
2023-01-18T15:37:00.288Z,16.90
2023-01-18T15:40:24.831Z,11.93
2023-01-18T15:43:49.282Z,23.10
2023-01-18T15:47:29.205Z,10.60
2023-01-18T15:50:53.561Z,23.08
2023-01-18T15:54:19.265Z,12.13
2023-01-18T15:57:52.744Z,8.38
2023-01-18T16:01:16.378Z,10.93
2023-01-18T16:04:40.481Z,10.43
2023-01-18T16:08:22.724Z,11.85
2023-01-18T16:11:52.702Z,26.42
2023-01-18T16:15:25.728Z,12.60
2023-01-18T16:19:23.386Z,16.07
2023-01-18T16:22:46.430Z,11.53
2023-01-18T16:26:10.367Z,15.97
2023-01-18T16:29:45.137Z,14.73
2023-01-18T16:33:18.516Z,11.83
2023-01-18T16:36:43.059Z,15.52
2023-01-18T16:40:09.311Z,14.03
2023-01-18T16:43:34.855Z,18.90
2023-01-18T16:46:56.439Z,17.13
2023-01-18T16:50:18.934Z,19.73
2023-01-18T16:53:40.663Z,22.43
2023-01-18T16:57:04.747Z,26.02
2023-01-18T17:00:33.218Z,23.80
2023-01-18T17:03:54.868Z,19.92
2023-01-18T17:07:16.510Z,25.35
2023-01-18T17:10:45.205Z,24.90
2023-01-18T17:17:30.735Z,19.15
2023-01-18T17:20:58.349Z,20.27
2023-01-18T17:24:25.105Z,26.80
2023-01-18T17:27:49.623Z,18.88
2023-01-18T17:31:11.567Z,17.20
2023-01-18T17:34:35.726Z,18.73
2023-01-18T17:38:05.032Z,15.13
2023-01-18T17:41:34.440Z,16.87
2023-01-18T17:45:02.690Z,17.23
2023-01-18T17:48:24.347Z,19.08
2023-01-18T17:51:48.165Z,25.90
2023-01-18T17:55:12.746Z,15.90
2023-01-18T17:58:34.445Z,12.63
2023-01-18T18:01:56.128Z,15.57
2023-01-18T18:05:21.025Z,30.23
2023-01-18T18:08:42.798Z,28.97
2023-01-18T18:12:05.208Z,21.17
2023-01-18T18:15:27.396Z,30.40
2023-01-18T18:18:48.983Z,52.03
2023-01-18T18:22:12.804Z,34.10
2023-01-18T18:25:34.376Z,26.80
2023-01-18T18:28:56.018Z,21.50
2023-01-18T18:32:17.671Z,18.57
2023-01-18T18:35:39.319Z,28.37
2023-01-18T18:39:01.900Z,27.43
2023-01-18T18:42:24.239Z,25.20
2023-01-18T18:45:46.676Z,26.57
2023-01-18T18:49:08.454Z,22.80
2023-01-18T18:52:32.628Z,22.90
2023-01-18T18:55:59.799Z,19.67
2023-01-18T18:59:26.075Z,22.93
2023-01-18T19:02:47.758Z,20.73
2023-01-18T19:06:13.057Z,18.47
2023-01-18T19:09:34.974Z,14.80
2023-01-18T19:12:56.896Z,17.83
2023-01-18T19:16:18.606Z,19.33
2023-01-18T19:19:40.194Z,14.97
2023-01-18T19:23:02.347Z,11.37
2023-01-18T19:26:24.285Z,12.43
2023-01-18T19:29:45.879Z,11.37
2023-01-18T19:33:08.177Z,12.83
2023-01-18T19:36:30.117Z,16.03
2023-01-18T19:39:51.667Z,11.57
2023-01-18T19:43:13.678Z,11.90
2023-01-18T19:46:35.620Z,12.47
2023-01-18T19:50:02.894Z,10.67
2023-01-18T19:53:24.520Z,11.17
2023-01-18T19:56:49.070Z,10.17
2023-01-18T20:00:11.509Z,13.00
2023-01-18T20:03:33.815Z,12.67
2023-01-18T20:06:58.270Z,12.33
2023-01-18T20:10:22.429Z,12.50
2023-01-18T20:13:50.766Z,11.17
2023-01-18T20:17:15.214Z,11.55
2023-01-18T20:20:39.416Z,14.23
2023-01-18T20:24:01.095Z,11.53
2023-01-18T20:27:22.747Z,12.90
2023-01-18T20:30:50.321Z,15.47
2023-01-18T20:34:11.891Z,14.33
2023-01-18T20:37:33.805Z,13.67
2023-01-18T20:40:55.520Z,15.13
2023-01-18T20:44:17.427Z,15.83
2023-01-18T20:47:41.175Z,16.37
2023-01-18T20:51:04.189Z,12.33
2023-01-18T20:54:28.036Z,13.13
2023-01-18T20:57:54.759Z,12.80
2023-01-18T21:01:21.744Z,12.87
2023-01-18T21:04:43.396Z,13.50
2023-01-18T21:08:07.300Z,11.23
2023-01-18T21:11:29.034Z,12.90
2023-01-18T21:14:50.647Z,9.60
2023-01-18T21:18:12.594Z,11.00
2023-01-18T21:21:36.945Z,10.67
2023-01-18T21:24:58.570Z,13.30
2023-01-18T21:28:22.758Z,11.83
2023-01-18T21:31:44.570Z,12.40
2023-01-18T21:35:08.334Z,11.93
2023-01-18T21:38:30.175Z,12.53
2023-01-18T21:42:10.977Z,11.73
2023-01-18T21:45:51.368Z,11.23
2023-01-18T21:49:52.032Z,9.40
2023-01-18T21:53:36.119Z,11.07
2023-01-18T21:57:00.149Z,10.00
2023-01-18T22:00:24.229Z,10.90
2023-01-18T22:04:04.946Z,14.93
2023-01-18T22:07:28.336Z,13.73
2023-01-18T22:10:50.033Z,11.40
2023-01-18T22:14:11.907Z,10.47
2023-01-18T22:17:33.706Z,10.90
2023-01-18T22:20:58.443Z,12.17
2023-01-18T22:24:22.038Z,21.80
2023-01-18T22:27:46.283Z,17.87
2023-01-18T22:31:08.413Z,8.93
2023-01-18T22:34:30.126Z,7.60
2023-01-18T22:37:52.315Z,8.00
2023-01-18T22:41:16.654Z,8.70
2023-01-18T22:44:38.230Z,9.50
2023-01-18T22:48:00.647Z,8.67
2023-01-18T22:51:25.286Z,9.40
2023-01-18T22:54:46.918Z,8.87
2023-01-18T22:58:08.513Z,10.57
2023-01-18T23:01:32.483Z,6.90
2023-01-18T23:04:57.109Z,8.47
2023-01-18T23:08:18.708Z,8.67
2023-01-18T23:11:40.848Z,8.27
2023-01-18T23:15:21.027Z,8.87
2023-01-18T23:18:45.623Z,8.20
2023-01-18T23:22:07.661Z,8.40
2023-01-18T23:25:30.040Z,9.40
2023-01-18T23:28:53.837Z,7.50
2023-01-18T23:32:15.852Z,7.77
2023-01-18T23:35:37.444Z,6.63
2023-01-18T23:39:17.530Z,6.37
2023-01-18T23:42:57.589Z,6.43
2023-01-18T23:46:37.689Z,4.20
2023-01-18T23:50:17.884Z,5.37
2023-01-18T23:53:57.937Z,5.33
2023-01-18T23:57:21.771Z,7.87
